Time;durP1;ratioP1;P1;durP2;ratioP2;P2;SDS_P1;SDS_P2;PMS_P1;PMS_P2;Temp;Humidity;BMP_temperature;BMP_pressure;BME280_temperature;BME280_humidity;BME280_pressure;Samples;Min_cycle;Max_cycle;Signal;HPM_P1;HPM_P2
2023/08/19 00:01:06;;;;;;;13.60;12.88;;;;;;;21.83;89.80;100990.94;4824559;29;20730;-68
2023/08/19 00:03:33;;;;;;;14.48;13.40;;;;;;;21.80;89.96;101000.41;4824534;29;20203;-68
2023/08/19 00:06:10;;;;;;;15.25;14.25;;;;;;;21.78;89.73;100982.59;4825245;29;20554;-68
2023/08/19 00:08:37;;;;;;;16.60;14.68;;;;;;;21.77;89.93;100994.53;4824600;29;20218;-67
2023/08/19 00:11:04;;;;;;;14.07;13.02;;;;;;;21.76;89.70;100984.72;4824434;29;20191;-67
2023/08/19 00:13:31;;;;;;;12.90;12.27;;;;;;;21.77;89.59;100989.09;4824410;29;20253;-67
2023/08/19 00:15:58;;;;;;;13.25;12.35;;;;;;;21.76;89.73;100985.56;4824867;29;20273;-67
2023/08/19 00:18:24;;;;;;;14.48;13.50;;;;;;;21.74;89.59;100987.66;4824776;29;20227;-68
2023/08/19 00:20:51;;;;;;;14.10;12.82;;;;;;;21.75;89.56;100983.03;4824331;29;20251;-68
2023/08/19 00:23:17;;;;;;;13.27;12.40;;;;;;;21.72;88.76;100984.31;4824554;29;20203;-67
2023/08/19 00:25:44;;;;;;;14.50;13.13;;;;;;;21.71;88.61;100984.53;4824310;29;20195;-67
2023/08/19 00:28:10;;;;;;;15.02;13.18;;;;;;;21.70;89.04;100986.41;4824424;29;20219;-68
2023/08/19 00:30:37;;;;;;;18.33;13.02;;;;;;;21.71;88.50;100979.94;4824936;29;20195;-68
2023/08/19 00:33:03;;;;;;;13.43;12.48;;;;;;;21.69;88.29;100973.84;4824217;29;20191;-68
2023/08/19 00:35:32;;;;;;;15.60;12.88;;;;;;;21.70;87.87;100977.41;4822865;29;20220;-67
2023/08/19 00:37:59;;;;;;;12.85;11.88;;;;;;;21.68;87.61;100974.09;4822866;29;20223;-68
2023/08/19 00:40:25;;;;;;;13.60;12.40;;;;;;;21.66;87.48;100974.28;4822925;29;20203;-68
2023/08/19 00:42:51;;;;;;;13.07;12.18;;;;;;;21.66;87.48;100973.47;4824367;29;20195;-68
2023/08/19 00:45:18;;;;;;;14.40;12.95;;;;;;;21.68;87.29;100979.53;4824588;29;20199;-68
2023/08/19 00:47:45;;;;;;;12.45;11.63;;;;;;;21.66;87.41;100976.19;4824183;29;20219;-68
2023/08/19 00:50:13;;;;;;;13.02;11.68;;;;;;;21.66;87.09;100984.34;4824073;29;20191;-68
2023/08/19 00:52:40;;;;;;;18.50;11.88;;;;;;;21.67;87.25;100988.75;4822756;29;20206;-68
2023/08/19 00:55:07;;;;;;;14.88;11.95;;;;;;;21.64;86.82;100979.09;4824148;29;20684;-68
2023/08/19 00:57:35;;;;;;;12.80;11.02;;;;;;;21.64;87.11;100992.72;4824233;29;20735;-68
2023/08/19 01:00:03;;;;;;;13.02;11.77;;;;;;;21.62;86.52;100989.38;4823935;29;20196;-68
2023/08/19 01:02:30;;;;;;;11.98;11.32;;;;;;;21.61;86.77;100985.00;4822668;29;20203;-68
2023/08/19 01:04:57;;;;;;;11.73;11.13;;;;;;;21.60;86.87;100975.16;4825341;29;20278;-68
2023/08/19 01:07:37;;;;;;;11.68;11.02;;;;;;;21.60;86.67;100987.94;4827494;29;20211;-68
2023/08/19 01:10:35;;;;;;;12.23;11.55;;;;;;;21.60;86.73;100988.75;4827614;29;20258;-68
2023/08/19 01:13:14;;;;;;;11.55;10.98;;;;;;;21.59;86.67;100981.66;4827316;29;20706;-68
2023/08/19 01:15:52;;;;;;;11.13;10.55;;;;;;;21.54;86.63;100992.38;4826948;29;20552;-68
2023/08/19 01:18:19;;;;;;;12.13;10.80;;;;;;;21.54;86.49;100983.38;4825702;29;20280;-68
2023/08/19 01:20:46;;;;;;;11.77;10.77;;;;;;;21.51;86.57;100984.66;4826869;29;20254;-68
2023/08/19 01:23:23;;;;;;;11.48;10.40;;;;;;;21.49;86.66;100986.72;4825621;29;20207;-68
2023/08/19 01:25:49;;;;;;;10.75;10.35;;;;;;;21.46;86.43;100976.28;4825655;29;20188;-68
2023/08/19 01:28:20;;;;;;;11.27;10.63;;;;;;;21.44;86.64;100972.94;4825477;29;20330;-68
2023/08/19 01:30:46;;;;;;;13.27;11.23;;;;;;;21.43;86.71;100982.16;4826971;29;20191;-68
2023/08/19 01:33:15;;;;;;;10.85;10.00;;;;;;;21.39;86.77;100975.47;4825475;29;20575;-68
2023/08/19 01:35:53;;;;;;;10.07;9.75;;;;;;;21.35;86.66;100975.06;4826853;29;20651;-68
2023/08/19 01:38:50;;;;;;;10.45;9.90;;;;;;;21.32;86.70;100974.69;4825367;29;20227;-68
2023/08/19 01:41:22;;;;;;;10.85;9.90;;;;;;;21.28;86.52;100968.00;4825314;29;20203;-68
2023/08/19 01:43:49;;;;;;;10.18;9.85;;;;;;;21.25;86.84;100972.00;4827104;29;20196;-68
2023/08/19 01:46:15;;;;;;;11.60;10.80;;;;;;;21.23;86.67;100968.63;4826750;29;20191;-68
2023/08/19 01:48:42;;;;;;;9.55;8.77;;;;;;;21.19;87.08;100972.00;4826938;29;20215;-68
2023/08/19 01:51:09;;;;;;;10.13;9.70;;;;;;;21.16;86.82;100973.28;4825218;29;20238;-68
2023/08/19 01:53:35;;;;;;;10.52;9.73;;;;;;;21.15;87.14;100970.75;4825144;29;20222;-68
2023/08/19 01:56:02;;;;;;;11.07;10.48;;;;;;;21.13;86.93;100975.59;4826273;29;20211;-68
2023/08/19 01:58:29;;;;;;;10.52;10.23;;;;;;;21.11;86.98;100970.34;4824980;29;20271;-68
2023/08/19 02:00:56;;;;;;;11.73;10.95;;;;;;;21.08;87.05;100972.66;4825039;29;20199;-68
2023/08/19 02:03:22;;;;;;;10.85;10.05;;;;;;;21.06;87.10;100972.00;4826247;29;20251;-68
2023/08/19 02:05:49;;;;;;;10.40;9.85;;;;;;;21.03;87.18;100972.44;4826725;29;20260;-68
2023/08/19 02:08:15;;;;;;;10.63;9.77;;;;;;;20.97;87.27;100972.25;4825341;29;20234;-68
2023/08/19 02:10:42;;;;;;;12.10;11.02;;;;;;;20.96;87.38;100972.50;4826416;29;20191;-67
2023/08/19 02:13:09;;;;;;;11.27;10.27;;;;;;;20.98;87.18;100970.38;4824865;29;20206;-67
2023/08/19 02:15:36;;;;;;;11.13;10.30;;;;;;;20.96;87.09;100976.00;4825783;29;20215;-67
2023/08/19 02:18:04;;;;;;;10.70;9.98;;;;;;;20.92;87.14;100974.78;4824713;29;20254;-68
2023/08/19 02:20:31;;;;;;;10.88;10.23;;;;;;;20.90;87.13;100976.88;4826234;29;20294;-68
2023/08/19 02:22:59;;;;;;;15.13;9.82;;;;;;;20.88;87.44;100976.25;4824718;29;20199;-68
2023/08/19 02:25:25;;;;;;;17.73;10.60;;;;;;;20.86;87.10;100975.63;4825888;29;20211;-68
2023/08/19 02:27:52;;;;;;;11.80;10.80;;;;;;;20.85;87.27;100973.97;4826048;29;20223;-68
2023/08/19 02:30:19;;;;;;;11.75;10.90;;;;;;;20.85;86.98;100976.69;4824608;29;20294;-68
2023/08/19 02:32:46;;;;;;;10.85;10.07;;;;;;;20.83;87.32;100980.66;4824557;29;20270;-68
2023/08/19 02:35:13;;;;;;;11.40;10.40;;;;;;;20.82;87.35;100973.56;4825670;29;20198;-68
2023/08/19 02:37:40;;;;;;;11.05;9.98;;;;;;;20.83;87.08;100975.22;4826118;29;20741;-68
2023/08/19 02:40:07;;;;;;;11.02;10.18;;;;;;;20.82;87.10;100974.41;4824402;29;20689;-67
2023/08/19 02:42:35;;;;;;;13.02;11.88;;;;;;;20.77;87.48;100970.63;4824399;29;20256;-67
2023/08/19 02:45:02;;;;;;;11.30;10.13;;;;;;;20.74;87.57;100963.75;4826100;29;20217;-67
2023/08/19 02:47:29;;;;;;;13.48;10.95;;;;;;;20.76;87.17;100961.63;4824273;29;20219;-68
2023/08/19 02:49:56;;;;;;;11.43;10.55;;;;;;;20.75;87.47;100956.44;4824279;29;20207;-68
2023/08/19 02:52:22;;;;;;;11.68;10.88;;;;;;;20.73;87.36;100958.53;4824250;29;20668;-67
2023/08/19 02:54:49;;;;;;;17.00;12.27;;;;;;;20.69;87.31;100958.13;4825728;29;20196;-67
2023/08/19 02:57:15;;;;;;;10.55;10.10;;;;;;;20.67;87.63;100949.31;4824056;29;20262;-68
2023/08/19 02:59:42;;;;;;;14.15;10.85;;;;;;;20.67;87.30;100953.91;4824166;29;20363;-67
2023/08/19 03:02:08;;;;;;;12.43;11.37;;;;;;;20.62;87.75;100956.47;4825613;29;20214;-67
2023/08/19 03:04:34;;;;;;;14.15;12.93;;;;;;;20.58;87.79;100942.44;4825609;29;20199;-67
2023/08/19 03:07:01;;;;;;;12.13;11.37;;;;;;;20.57;88.23;100940.78;4825230;29;20196;-68
2023/08/19 03:09:27;;;;;;;12.68;11.65;;;;;;;20.56;88.23;100932.84;4825503;29;20199;-67
2023/08/19 03:11:54;;;;;;;10.70;10.07;;;;;;;20.57;87.97;100937.25;4825692;29;20228;-67
2023/08/19 03:14:20;;;;;;;11.33;10.73;;;;;;;20.57;87.89;100937.25;4825389;29;20260;-67
2023/08/19 03:16:47;;;;;;;10.85;10.10;;;;;;;20.59;88.17;100940.56;4825048;29;20802;-67
2023/08/19 03:19:14;;;;;;;12.97;11.97;;;;;;;20.60;87.90;100944.97;4825597;29;20611;-67
2023/08/19 03:21:41;;;;;;;12.70;11.60;;;;;;;20.59;87.77;100941.41;4824073;29;20203;-67
2023/08/19 03:24:08;;;;;;;11.60;10.93;;;;;;;20.56;87.78;100935.56;4824010;29;20282;-68
2023/08/19 03:26:34;;;;;;;12.03;10.57;;;;;;;20.54;87.70;100934.94;4823678;29;20634;-68
2023/08/19 03:29:01;;;;;;;11.53;10.60;;;;;;;20.52;87.87;100927.84;4823301;29;20734;-68
2023/08/19 03:31:27;;;;;;;11.73;10.83;;;;;;;20.50;87.46;100924.50;4823739;29;20199;-68
2023/08/19 03:33:54;;;;;;;11.37;10.60;;;;;;;20.45;87.75;100918.03;4824194;29;20214;-68
2023/08/19 03:36:20;;;;;;;12.77;11.43;;;;;;;20.44;88.03;100927.22;4825081;29;20211;-68
2023/08/19 03:38:47;;;;;;;11.37;10.37;;;;;;;20.41;88.13;100923.03;4823607;29;20219;-68
2023/08/19 03:41:14;;;;;;;11.80;10.77;;;;;;;20.39;87.53;100929.75;4824969;29;20204;-67
2023/08/19 03:43:40;;;;;;;11.30;10.60;;;;;;;20.33;87.63;100917.81;4823564;29;20273;-67
2023/08/19 03:46:09;;;;;;;16.03;11.80;;;;;;;20.32;88.22;100920.78;4825260;29;20199;-67
2023/08/19 03:48:35;;;;;;;12.17;10.83;;;;;;;20.31;87.80;100924.53;4824618;29;20225;-68
2023/08/19 03:51:02;;;;;;;13.63;11.65;;;;;;;20.26;88.33;100924.28;4825231;29;20255;-68
2023/08/19 03:53:28;;;;;;;11.00;10.27;;;;;;;20.24;87.71;100926.38;4824626;29;20202;-68
2023/08/19 03:55:55;;;;;;;11.27;10.67;;;;;;;20.25;87.65;100928.03;4823357;29;20211;-68
2023/08/19 03:58:21;;;;;;;11.63;10.70;;;;;;;20.23;87.98;100933.69;4823499;29;20211;-68
2023/08/19 04:00:48;;;;;;;12.07;11.27;;;;;;;20.26;87.55;100930.56;4823535;29;20203;-68
2023/08/19 04:03:18;;;;;;;12.57;11.33;;;;;;;20.22;87.96;100925.75;4824456;29;20232;-68
2023/08/19 04:05:45;;;;;;;11.70;10.90;;;;;;;20.19;88.41;100928.88;4823283;29;20199;-68
2023/08/19 04:08:11;;;;;;;10.73;10.13;;;;;;;20.19;88.42;100921.59;4824418;29;20211;-68
2023/08/19 04:10:38;;;;;;;12.70;11.43;;;;;;;20.15;88.10;100917.63;4824978;29;20730;-68
2023/08/19 04:13:04;;;;;;;10.83;10.43;;;;;;;20.12;88.03;100912.59;4824688;29;20202;-68
2023/08/19 04:15:31;;;;;;;10.10;9.77;;;;;;;20.13;88.25;100924.28;4824273;29;20199;-68
2023/08/19 04:17:58;;;;;;;13.43;10.47;;;;;;;20.10;88.77;100917.41;4824291;29;20207;-68
2023/08/19 04:20:24;;;;;;;10.60;9.93;;;;;;;20.14;88.52;100924.09;4823319;29;20203;-67
2023/08/19 04:22:51;;;;;;;10.83;10.23;;;;;;;20.14;88.45;100925.97;4823089;29;20199;-67
2023/08/19 04:25:17;;;;;;;11.33;10.63;;;;;;;20.13;88.44;100922.41;4824245;29;20196;-67
2023/08/19 04:27:44;;;;;;;9.57;9.23;;;;;;;20.14;88.31;100924.09;4824214;29;20211;-68
2023/08/19 04:30:11;;;;;;;10.23;9.57;;;;;;;20.13;88.77;100918.84;4822978;29;20199;-68
2023/08/19 04:32:37;;;;;;;11.80;11.02;;;;;;;20.16;88.29;100921.13;4824741;29;20273;-68
2023/08/19 04:35:05;;;;;;;14.10;10.43;;;;;;;20.26;87.94;100924.28;4822947;29;20230;-68
2023/08/19 04:37:32;;;;;;;11.23;10.43;;;;;;;20.20;88.23;100927.84;4822813;29;20231;-68
2023/08/19 04:40:00;;;;;;;12.47;11.30;;;;;;;20.15;88.04;100927.63;4824359;29;20218;-68
2023/08/19 04:42:34;;;;;;;9.90;9.40;;;;;;;20.15;88.31;100933.06;4826403;29;20683;-68
2023/08/19 04:45:00;;;;;;;11.17;10.50;;;;;;;20.17;88.15;100936.41;4826369;29;20191;-68
2023/08/19 04:47:29;;;;;;;11.30;10.50;;;;;;;20.19;88.22;100939.75;4826500;29;20270;-68
2023/08/19 04:49:56;;;;;;;9.93;9.37;;;;;;;20.12;88.28;100931.59;4826431;29;20200;-68
2023/08/19 04:52:22;;;;;;;22.00;10.77;;;;;;;20.10;88.46;100941.84;4826186;29;20211;-68
2023/08/19 04:54:49;;;;;;;11.47;10.67;;;;;;;20.18;88.19;100938.91;4827630;29;20207;-68
2023/08/19 04:57:16;;;;;;;11.97;10.20;;;;;;;20.14;88.55;100940.38;4825959;29;20226;-68
2023/08/19 04:59:44;;;;;;;18.03;9.93;;;;;;;20.10;88.42;100941.00;4826557;29;20652;-68
2023/08/19 05:02:11;;;;;;;11.50;10.80;;;;;;;20.12;88.65;100933.47;4826254;29;20207;-68
2023/08/19 05:04:37;;;;;;;11.07;10.23;;;;;;;20.17;88.61;100942.66;4825944;29;20203;-68
2023/08/19 05:07:04;;;;;;;11.67;10.80;;;;;;;20.28;88.51;100949.38;4826351;29;20584;-69
2023/08/19 05:09:31;;;;;;;10.23;9.73;;;;;;;20.27;88.18;100943.09;4826388;29;20200;-68
2023/08/19 05:11:58;;;;;;;11.70;10.57;;;;;;;20.28;88.62;100933.91;4827307;29;20203;-68
2023/08/19 05:14:25;;;;;;;10.97;10.17;;;;;;;20.31;88.60;100929.97;4825782;29;20592;-68
2023/08/19 05:16:52;;;;;;;10.47;9.53;;;;;;;20.35;88.99;100939.34;4825581;29;20219;-69
2023/08/19 05:19:20;;;;;;;8.77;8.47;;;;;;;20.40;88.80;100939.56;4825700;29;20211;-68
2023/08/19 05:21:48;;;;;;;9.07;8.60;;;;;;;20.41;88.60;100935.81;4825646;29;20205;-68
2023/08/19 05:24:15;;;;;;;9.70;9.03;;;;;;;20.43;88.71;100942.69;4827087;29;20614;-68
2023/08/19 05:26:45;;;;;;;10.67;9.63;;;;;;;20.45;88.81;100931.63;4827037;29;20260;-68
2023/08/19 05:29:12;;;;;;;10.07;9.47;;;;;;;20.48;88.63;100933.91;4827192;29;20219;-68
2023/08/19 05:31:40;;;;;;;9.97;9.57;;;;;;;20.51;88.64;100945.19;4826752;29;20203;-68
2023/08/19 05:34:08;;;;;;;12.93;10.63;;;;;;;20.58;88.79;100956.03;4826895;29;20195;-68
2023/08/19 05:36:34;;;;;;;11.07;9.10;;;;;;;20.59;88.89;100937.84;4827085;29;20277;-68
2023/08/19 05:39:01;;;;;;;11.23;10.25;;;;;;;20.58;89.17;100938.91;4826416;29;20250;-68
2023/08/19 05:41:27;;;;;;;10.67;10.07;;;;;;;20.61;89.06;100938.47;4826892;29;20191;-68
2023/08/19 05:43:53;;;;;;;9.30;8.65;;;;;;;20.63;89.20;100941.81;4826553;29;20599;-68
2023/08/19 05:46:20;;;;;;;10.00;8.90;;;;;;;20.65;88.37;100937.00;4826528;29;20248;-68
2023/08/19 05:48:46;;;;;;;9.13;8.80;;;;;;;20.67;88.21;100946.59;4826426;29;20280;-68
2023/08/19 05:51:13;;;;;;;9.35;8.48;;;;;;;20.72;87.77;100944.09;4825921;29;20203;-67
2023/08/19 05:53:39;;;;;;;9.43;8.80;;;;;;;20.79;87.37;100947.63;4826626;29;20656;-67
2023/08/19 05:56:05;;;;;;;13.75;9.52;;;;;;;20.85;87.02;100951.38;4826558;29;20278;-67
2023/08/19 05:58:32;;;;;;;14.82;8.70;;;;;;;20.90;87.01;100946.16;4826258;29;20275;-68
2023/08/19 06:01:00;;;;;;;9.15;8.55;;;;;;;20.96;86.74;100950.75;4826536;29;20199;-68
2023/08/19 06:03:27;;;;;;;12.07;7.78;;;;;;;20.98;86.58;100945.91;4826169;29;20672;-67
2023/08/19 06:05:53;;;;;;;8.70;8.10;;;;;;;21.04;86.64;100947.78;4826189;29;20199;-67
2023/08/19 06:08:20;;;;;;;9.07;8.60;;;;;;;21.05;86.22;100951.34;4826243;29;20284;-68
2023/08/19 06:11:00;;;;;;;8.88;8.00;;;;;;;21.07;86.16;100954.66;4826382;29;20736;-68
2023/08/19 06:13:26;;;;;;;8.93;8.32;;;;;;;21.12;86.17;100954.84;4826398;29;20523;-68
2023/08/19 06:15:53;;;;;;;8.27;8.07;;;;;;;21.17;85.81;100955.09;4826582;29;20199;-68
2023/08/19 06:18:20;;;;;;;7.00;6.68;;;;;;;21.19;85.94;100959.25;4826067;29;20246;-68
2023/08/19 06:20:47;;;;;;;7.88;7.65;;;;;;;21.22;85.74;100956.09;4826245;29;20620;-68
2023/08/19 06:23:13;;;;;;;7.72;7.43;;;;;;;21.26;85.50;100954.59;4826191;29;20620;-68
2023/08/19 06:25:40;;;;;;;9.35;7.57;;;;;;;21.32;85.28;100956.47;4825906;29;20199;-68
2023/08/19 06:28:06;;;;;;;7.68;7.07;;;;;;;21.36;85.24;100954.16;4826116;29;20579;-68
2023/08/19 06:30:33;;;;;;;8.30;7.80;;;;;;;21.41;85.05;100959.78;4826076;29;20545;-68
2023/08/19 06:33:00;;;;;;;8.70;8.05;;;;;;;21.45;84.97;100960.19;4826018;29;20282;-68
2023/08/19 06:35:27;;;;;;;7.65;7.30;;;;;;;21.50;84.86;100972.09;4826041;29;20274;-68
2023/08/19 06:37:55;;;;;;;11.23;8.00;;;;;;;21.54;84.98;100973.31;4825830;29;20599;-68
2023/08/19 06:40:24;;;;;;;8.07;7.78;;;;;;;21.72;84.05;100992.50;4825700;29;20218;-68
2023/08/19 06:42:52;;;;;;;8.15;7.50;;;;;;;21.73;84.48;100994.13;4825634;29;20203;-68
2023/08/19 06:45:19;;;;;;;23.45;8.00;;;;;;;21.79;84.56;100998.72;4826149;29;20206;-68
2023/08/19 06:47:49;;;;;;;8.48;7.68;;;;;;;21.83;84.38;100994.50;4825517;29;20281;-68
2023/08/19 06:50:16;;;;;;;7.53;7.22;;;;;;;21.84;84.65;100998.91;4825762;29;20195;-68
2023/08/19 06:52:43;;;;;;;7.82;7.13;;;;;;;21.85;84.70;101006.00;4825982;29;20199;-68
2023/08/19 06:55:10;;;;;;;8.48;7.38;;;;;;;21.88;84.58;101004.75;4825393;29;20244;-68
2023/08/19 06:57:47;;;;;;;6.32;6.22;;;;;;;21.91;84.37;101001.56;4825262;29;20234;-68
2023/08/19 07:00:14;;;;;;;8.68;7.13;;;;;;;21.95;85.18;101002.00;4825317;29;20270;-68
2023/08/19 07:02:41;;;;;;;7.30;7.10;;;;;;;22.00;84.68;100994.00;4824834;29;20252;-68
2023/08/19 07:05:16;;;;;;;6.50;6.30;;;;;;;22.04;85.12;101006.97;4825599;29;20210;-68
2023/08/19 07:07:49;;;;;;;8.85;6.63;;;;;;;22.03;85.25;100999.00;4825154;29;20218;-68
2023/08/19 07:10:18;;;;;;;6.85;6.68;;;;;;;22.02;85.65;101000.09;4825536;29;20613;-68
2023/08/19 07:12:45;;;;;;;6.93;6.78;;;;;;;22.04;85.50;101004.25;4825194;29;20196;-68
2023/08/19 07:15:12;;;;;;;6.25;6.03;;;;;;;22.05;86.08;100999.63;4825133;29;20199;-68
2023/08/19 07:17:43;;;;;;;7.90;7.30;;;;;;;22.05;85.99;101002.34;4825823;29;20230;-68
2023/08/19 07:20:20;;;;;;;7.40;7.07;;;;;;;22.04;86.58;100993.34;4825629;29;20259;-68
2023/08/19 07:22:48;;;;;;;10.07;7.38;;;;;;;22.04;86.57;100992.50;4825312;29;20211;-68
2023/08/19 07:25:15;;;;;;;6.90;6.78;;;;;;;22.04;87.23;100987.91;4825565;29;20187;-68
2023/08/19 07:27:43;;;;;;;7.18;7.07;;;;;;;22.09;87.06;100995.41;4825426;29;20577;-68
2023/08/19 07:30:11;;;;;;;6.72;6.53;;;;;;;22.09;86.76;100992.69;4825207;29;20199;-68
2023/08/19 07:32:38;;;;;;;7.03;6.93;;;;;;;22.12;86.75;101001.25;4824930;29;20203;-68
2023/08/19 07:35:05;;;;;;;7.70;7.13;;;;;;;22.12;86.94;100986.78;4825426;29;20221;-68
2023/08/19 07:37:33;;;;;;;8.55;7.78;;;;;;;22.14;86.80;100987.41;4824963;29;20658;-68
2023/08/19 07:40:00;;;;;;;6.82;6.68;;;;;;;22.17;86.78;100993.25;4824836;29;20293;-68
2023/08/19 07:42:27;;;;;;;10.85;7.45;;;;;;;22.20;86.61;100991.97;4824762;29;20230;-68
2023/08/19 07:44:54;;;;;;;8.13;7.75;;;;;;;22.23;86.78;100999.72;4824759;29;20191;-68
2023/08/19 07:47:20;;;;;;;7.43;7.05;;;;;;;22.25;86.52;101003.03;4824957;29;20584;-68
2023/08/19 07:49:47;;;;;;;7.72;7.20;;;;;;;22.28;86.06;101010.75;4824617;29;20187;-68
2023/08/19 07:52:13;;;;;;;8.45;7.50;;;;;;;22.33;85.79;101016.38;4824669;29;20252;-67
2023/08/19 07:54:40;;;;;;;8.65;7.80;;;;;;;22.33;85.91;101011.78;4821136;29;20204;-68
2023/08/19 07:57:07;;;;;;;8.10;7.38;;;;;;;22.40;85.62;101008.19;4820210;29;20215;-68
2023/08/19 07:59:34;;;;;;;7.90;7.53;;;;;;;22.48;85.65;101014.19;4824215;29;20211;-68
2023/08/19 08:02:00;;;;;;;6.82;6.60;;;;;;;22.54;86.03;101018.72;4824555;29;20218;-68
2023/08/19 08:04:28;;;;;;;6.78;6.22;;;;;;;22.61;86.13;101014.06;4824519;29;20199;-68
2023/08/19 08:06:55;;;;;;;7.18;6.95;;;;;;;22.67;86.07;101017.78;4824453;29;20192;-69
2023/08/19 08:09:22;;;;;;;7.22;7.03;;;;;;;22.72;85.78;101010.63;4824448;29;20282;-68
2023/08/19 08:11:48;;;;;;;18.98;7.28;;;;;;;22.80;86.41;101017.69;4824487;29;20203;-68
2023/08/19 08:14:16;;;;;;;6.15;5.70;;;;;;;22.90;86.14;101012.56;4824166;29;20199;-68
2023/08/19 08:16:42;;;;;;;7.38;6.72;;;;;;;23.01;87.00;101024.59;4824562;29;20199;-68
2023/08/19 08:19:09;;;;;;;7.50;7.20;;;;;;;23.08;86.54;101025.38;4824513;29;20273;-68
2023/08/19 08:21:35;;;;;;;7.97;6.95;;;;;;;23.17;86.69;101024.00;4824387;29;20183;-68
2023/08/19 08:24:03;;;;;;;7.82;7.43;;;;;;;23.22;86.03;101024.16;4824245;29;20195;-68
2023/08/19 08:26:29;;;;;;;12.70;7.10;;;;;;;23.31;85.81;101011.88;4824271;29;20195;-68
2023/08/19 08:28:56;;;;;;;7.07;6.68;;;;;;;23.45;85.98;101018.06;4824220;29;20219;-68
2023/08/19 08:31:23;;;;;;;7.50;7.15;;;;;;;23.53;83.83;101024.03;4824224;29;20206;-68
2023/08/19 08:33:49;;;;;;;7.63;7.13;;;;;;;23.72;84.38;101021.28;4824622;29;20210;-68
2023/08/19 08:36:16;;;;;;;8.35;7.70;;;;;;;23.88;83.04;101012.44;4824144;29;20210;-68
2023/08/19 08:38:42;;;;;;;7.43;6.90;;;;;;;24.02;80.73;101016.63;4824132;29;20357;-68
2023/08/19 08:41:09;;;;;;;8.85;6.30;;;;;;;24.19;79.20;101011.38;4824213;29;20208;-68
2023/08/19 08:43:37;;;;;;;6.47;6.18;;;;;;;24.31;78.03;101013.09;4824308;29;20203;-68
2023/08/19 08:46:03;;;;;;;9.43;5.90;;;;;;;24.42;78.09;101027.81;4824300;29;20226;-68
2023/08/19 08:48:32;;;;;;;6.15;5.80;;;;;;;24.64;76.87;101036.28;4823947;29;20219;-68
2023/08/19 08:50:59;;;;;;;6.00;5.38;;;;;;;24.64;77.64;101028.94;4823997;29;20211;-68
2023/08/19 08:53:28;;;;;;;7.07;6.07;;;;;;;24.77;73.92;101036.91;4824475;29;20203;-68
2023/08/19 08:55:56;;;;;;;8.10;5.75;;;;;;;24.82;73.30;101045.22;4823964;29;20203;-68
2023/08/19 08:58:23;;;;;;;6.13;5.82;;;;;;;24.80;74.15;101052.00;4824654;29;20276;-68
2023/08/19 09:00:50;;;;;;;7.15;6.15;;;;;;;24.89;73.15;101045.13;4824184;29;20191;-68
2023/08/19 09:03:20;;;;;;;5.95;5.75;;;;;;;24.87;73.16;101050.81;4823859;29;20240;-68
2023/08/19 09:05:51;;;;;;;6.30;5.93;;;;;;;24.89;73.27;101045.97;4824624;29;20194;-68
2023/08/19 09:08:24;;;;;;;7.25;5.72;;;;;;;24.96;72.61;101048.56;4824080;29;20226;-68
2023/08/19 09:10:51;;;;;;;6.40;6.20;;;;;;;25.02;72.33;101043.00;4824397;29;20176;-68
2023/08/19 09:13:21;;;;;;;6.63;6.43;;;;;;;25.08;73.71;101049.38;4823819;29;20252;-68
2023/08/19 09:15:47;;;;;;;9.77;5.82;;;;;;;25.15;73.26;101054.75;4823798;29;20664;-68
2023/08/19 09:18:17;;;;;;;9.05;6.85;;;;;;;25.19;73.62;101054.03;4823593;29;20223;-68
2023/08/19 09:20:44;;;;;;;5.90;5.90;;;;;;;25.23;73.04;101060.69;4823753;29;20591;-68
2023/08/19 09:23:11;;;;;;;6.65;6.07;;;;;;;25.28;73.76;101049.88;4824268;29;20264;-68
2023/08/19 09:25:39;;;;;;;6.28;6.03;;;;;;;25.37;73.47;101062.13;4824428;29;20192;-68
2023/08/19 09:28:07;;;;;;;5.70;5.35;;;;;;;25.50;73.28;101065.66;4826699;29;20735;-68
2023/08/19 09:30:34;;;;;;;10.65;6.28;;;;;;;25.50;73.02;101071.13;4827074;29;20637;-68
2023/08/19 09:33:02;;;;;;;6.95;5.93;;;;;;;25.50;73.24;101068.41;4826726;29;20215;-68
2023/08/19 09:35:37;;;;;;;5.88;5.78;;;;;;;25.52;73.91;101066.22;4826667;29;20203;-68
2023/08/19 09:38:23;;;;;;;6.50;6.35;;;;;;;25.90;69.15;101074.72;4826664;29;20230;-68
2023/08/19 09:40:58;;;;;;;8.25;5.72;;;;;;;25.94;68.96;101075.91;4826544;29;20199;-68
2023/08/19 09:43:25;;;;;;;7.22;6.88;;;;;;;25.91;69.07;101085.44;4827072;29;20194;-68
2023/08/19 09:45:55;;;;;;;7.20;6.57;;;;;;;26.06;66.87;101084.06;4827101;29;20188;-68
2023/08/19 09:48:22;;;;;;;6.22;6.00;;;;;;;26.06;66.40;101090.38;4826519;29;20222;-68
2023/08/19 09:50:48;;;;;;;6.28;6.07;;;;;;;26.16;65.93;101090.59;4826486;29;20195;-68
2023/08/19 09:53:16;;;;;;;7.97;7.28;;;;;;;26.41;65.96;101092.16;4826407;29;20665;-68
2023/08/19 09:55:50;;;;;;;7.82;7.10;;;;;;;26.42;64.89;101094.66;4826854;29;20206;-68
2023/08/19 09:58:17;;;;;;;6.95;6.60;;;;;;;26.60;66.32;101091.69;4826452;29;20227;-68
2023/08/19 10:00:46;;;;;;;7.13;6.70;;;;;;;26.88;64.13;101092.72;4826247;29;20560;-68
2023/08/19 10:03:13;;;;;;;6.85;6.45;;;;;;;27.04;63.41;101092.69;4826231;29;20195;-68
2023/08/19 10:05:41;;;;;;;13.10;6.47;;;;;;;27.11;62.20;101098.88;4826231;29;20625;-68
2023/08/19 10:08:17;;;;;;;7.18;6.75;;;;;;;27.28;61.63;101102.38;4826251;29;20211;-68
2023/08/19 10:10:45;;;;;;;11.65;7.25;;;;;;;27.36;61.35;101109.38;4826701;29;20187;-68
2023/08/19 10:13:13;;;;;;;7.65;7.05;;;;;;;27.36;59.65;101106.63;4827190;29;20581;-68
2023/08/19 10:15:42;;;;;;;7.20;6.57;;;;;;;27.38;60.26;101103.63;4826281;29;20203;-68
2023/08/19 10:18:24;;;;;;;8.88;8.27;;;;;;;27.46;59.06;101097.69;4826646;29;20676;-68
2023/08/19 10:20:54;;;;;;;8.15;7.68;;;;;;;27.53;61.68;101112.13;4826461;29;20192;-68
2023/08/19 10:23:22;;;;;;;8.35;7.75;;;;;;;27.60;61.17;101108.09;4826495;29;20701;-68
2023/08/19 10:25:49;;;;;;;7.95;7.38;;;;;;;27.55;60.83;101107.19;4826356;29;20215;-68
2023/08/19 10:28:23;;;;;;;7.68;7.35;;;;;;;27.65;61.25;101110.91;4825789;29;20588;-68
2023/08/19 10:31:10;;;;;;;8.50;7.75;;;;;;;27.66;60.53;101120.00;4826194;29;20195;-68
2023/08/19 10:33:45;;;;;;;8.20;7.93;;;;;;;27.64;60.01;101119.41;4826340;29;20188;-68
2023/08/19 10:36:19;;;;;;;8.23;7.72;;;;;;;27.60;59.92;101118.25;4825957;29;20187;-68
2023/08/19 10:38:48;;;;;;;9.57;7.70;;;;;;;27.56;59.91;101123.41;4825616;29;20230;-68
2023/08/19 10:41:26;;;;;;;8.85;7.82;;;;;;;27.53;58.63;101126.69;4825973;29;20594;-68
2023/08/19 10:43:56;;;;;;;7.93;7.28;;;;;;;27.56;60.54;101133.56;4825860;29;20195;-68
2023/08/19 10:46:27;;;;;;;11.43;7.43;;;;;;;27.53;59.23;101123.09;4825915;29;20190;-68
2023/08/19 10:48:53;;;;;;;8.68;8.15;;;;;;;27.40;59.75;101123.44;4825781;29;20218;-68
2023/08/19 10:51:20;;;;;;;13.88;8.10;;;;;;;27.39;59.44;101127.25;4825459;29;20199;-68
2023/08/19 10:54:09;;;;;;;10.48;8.45;;;;;;;27.40;62.44;101123.44;4825455;29;20557;-68
2023/08/19 10:56:35;;;;;;;9.15;8.25;;;;;;;27.42;60.40;101121.25;4825481;29;20204;-68
2023/08/19 10:59:02;;;;;;;9.18;8.60;;;;;;;27.44;62.69;101130.06;4825342;29;20216;-68
2023/08/19 11:01:32;;;;;;;9.23;8.13;;;;;;;27.45;61.52;101126.25;4825619;29;20191;-68
2023/08/19 11:03:59;;;;;;;8.98;8.45;;;;;;;27.45;60.82;101132.59;4825883;29;20189;-68
2023/08/19 11:06:33;;;;;;;10.80;8.73;;;;;;;27.36;62.42;101131.34;4825267;29;20198;-68
2023/08/19 11:08:59;;;;;;;8.57;8.02;;;;;;;27.45;61.70;101134.50;4825187;29;20709;-68
2023/08/19 11:11:26;;;;;;;8.07;7.75;;;;;;;27.37;62.82;101140.44;4825235;29;20682;-68
2023/08/19 11:13:53;;;;;;;9.10;8.75;;;;;;;27.43;62.07;101144.88;4825483;29;20191;-68
2023/08/19 11:16:25;;;;;;;14.60;8.30;;;;;;;27.43;62.30;101139.41;4825626;29;20191;-68
2023/08/19 11:18:53;;;;;;;10.63;9.05;;;;;;;27.49;62.72;101141.19;4825101;29;20271;-68
2023/08/19 11:21:19;;;;;;;9.52;9.32;;;;;;;27.44;63.97;101138.31;4825596;29;20203;-68